Alakanuk, AK (99554)

11:43 PM AKDT on July 25, 2014 (GMT -0800)
Emmonak (PAEM) Elev 13 ft | 62.79 °N, 164.49 °W | Change Station

Current weather conditions updated 7 minutes ago

Overcast
Overcast
46 °F
Feels Like 45 °F
N
4
Wind Variable Wind from ENE

Tomorrow is forecast to be nearly the same temperature as today.

Today
High -- | Low -- °F
--% Chance of Precip.
Yesterday
High -- | Low -- °F
Precip. -- in
5:59 AM 0:08 AM
Waning Crescent, 0% visible
Pressure 30.08 in
Visibility 10.0 miles
Clouds Scattered Clouds 7000 ft
Overcast 11000 ft
Windchill 45 °F
Dew Point 37 °F
Humidity 71%
Rainfall 0.00 in
Snow Depth Not available.
UV 0 out of 12
Pollen Not available.
Air Quality Not available.
Flu Activity Not available.
METAR PAEM 260736Z AUTO 06003KT 10SM SCT070 OVC110 08/03 A3008 RMK AO1

More Conditions Fewer Conditions

Pressure 30.08 in
Visibility 10.0 miles
Clouds Scattered Clouds 7000 ft
Overcast 11000 ft
Windchill 45 °F
Dew Point 37 °F
Humidity 71%
Rainfall 0.00 in
Snow Depth Not available.
UV 0 out of 12
Pollen Not available.
Air Quality Not available.
Flu Activity Not available.
METAR PAEM 260736Z AUTO 06003KT 10SM SCT070 OVC110 08/03 A3008 RMK AO1

More Conditions Fewer Conditions

10-Day Weather Forecast

Almanac

Astronomy

Jul. 25, 2014 Rise Set
Actual Time 5:59 AM AKDT 12:08 AM AKDT
Civil Twilight 4:29 AM AKDT 1:35 AM AKDT
Nautical Twilight Sun does not rise Sun does not rise
Astronomical Twilight Sun does not rise Sun does not rise
Moon 5:29 AM AKDT (7/25) 10:45 PM AKDT (7/25)
Length of Visible Light 21h 06m
Length of Day
18h 08m
Tomorrow will be 5m 35s shorter.
Waning Crescent, 0% of the Moon is Illuminated
Jul 26
Waning Crescent
Jul 26
New
Aug 3
First Quarter
Aug 10
Full
Aug 17
Last Quarter

Community

WunderPhotos

Upload Photos

1,737,527 photos uploaded!

Nearby

Snow Depth

Station Depth Elevation
Rocky Point 1 in 500 ft
Susitna Valley High 2 in 375 ft
Mcneil Canyon 1 in 1320 ft
Point Mackenzie 1 in 200 ft
Port Graham 0 in 300 ft

Earthquake Activity

City Distance Mag. Time & Date
No recent earthquake activity has been reported nearby.
Minimum magnitude displayed is 2.5.

Coastal Water Temperatures

Place Temperature
No Stations Reporting

Nearby Weather Stations

There are no personal weather stations in this area.